Terminal Aerodrome Forecast
Issued by NWS

Home | Current Version | Previous Version | Text Only | Print | Product List | Glossary On
Versions: 1 2 3 4 5 6 7 8 9 10 11 12 13 14 15 16
000
FTUS45 KABQ 052300 RRA
TAFSAF
TAF
KSAF 052340Z 0600/0624 26013G21KT P6SM VCTS BKN040CB
      TEMPO 0600/0603 VRB18G27KT -SHRA SCT025 OVC040
     FM060300 29011KT P6SM SCT040 BKN090
      TEMPO 0608/0612 2SM BR OVC015
     FM061500 27009KT P6SM FEW030 BKN050=

USA.gov is the U.S. government's official web portal to all federal, state and local government web resources and services.